BEL3DQ EBBR-EDDF
Flight info
| Callsign | BEL3DQ |
|---|---|
| Flight time | 0h 35m |
| Altitude | 23000 |
| Route | SPI T180 NIVNU T847 IMCOM IMCOM1D |
| Aircraft | A320/M-SDE3FGHIRWY/LB1 |
Departure
| Time | 2026-05-07 20:01 |
|---|---|
| Airport | Brussels Airport (EBBR) |
Arrival
| Time | 2026-05-07 20:36 |
|---|---|
| Airport | Frankfurt Main Airport (EDDF) |
| Time | Latitude | Longitude | Altitude | Speed | Heading |
|---|---|---|---|---|---|
| 2026-05-07 19:26 | 50.90244 | 4.48038 | 121 ft | 0 kts | 156° |
| 2026-05-07 19:47 | 50.90253 | 4.48031 | 117 ft | 4 kts | 155° |
| 2026-05-07 19:48 | 50.90277 | 4.48013 | 116 ft | 4 kts | 153° |
| 2026-05-07 19:48 | 50.90301 | 4.47992 | 117 ft | 4 kts | 143° |
| 2026-05-07 19:48 | 50.90318 | 4.47964 | 117 ft | 4 kts | 101° |
| 2026-05-07 19:48 | 50.90318 | 4.47949 | 116 ft | 0 kts | 65° |
| 2026-05-07 19:51 | 50.90326 | 4.47973 | 118 ft | 9 kts | 64° |
| 2026-05-07 19:52 | 50.90367 | 4.48114 | 117 ft | 16 kts | 65° |
| 2026-05-07 19:52 | 50.90415 | 4.48277 | 119 ft | 18 kts | 63° |
| 2026-05-07 19:52 | 50.90469 | 4.48466 | 119 ft | 20 kts | 66° |
| 2026-05-07 19:52 | 50.90532 | 4.48595 | 120 ft | 15 kts | 9° |
| 2026-05-07 19:53 | 50.90609 | 4.48673 | 120 ft | 14 kts | 64° |
| 2026-05-07 19:53 | 50.90652 | 4.48827 | 120 ft | 16 kts | 65° |
| 2026-05-07 19:53 | 50.90703 | 4.49002 | 117 ft | 19 kts | 65° |
| 2026-05-07 19:53 | 50.90755 | 4.49182 | 118 ft | 17 kts | 65° |
| 2026-05-07 19:54 | 50.90807 | 4.49363 | 121 ft | 16 kts | 65° |
| 2026-05-07 19:54 | 50.90832 | 4.49449 | 122 ft | 7 kts | 65° |
| 2026-05-07 19:54 | 50.90851 | 4.49512 | 121 ft | 6 kts | 65° |
| 2026-05-07 19:54 | 50.90881 | 4.49617 | 123 ft | 15 kts | 65° |
| 2026-05-07 19:55 | 50.90925 | 4.49770 | 123 ft | 14 kts | 65° |
| 2026-05-07 19:55 | 50.91005 | 4.49886 | 117 ft | 18 kts | 30° |
| 2026-05-07 19:55 | 50.91039 | 4.49911 | 119 ft | 0 kts | 24° |
| 2026-05-07 20:00 | 50.91083 | 4.49941 | 118 ft | 14 kts | 20° |
| 2026-05-07 20:00 | 50.91146 | 4.49877 | 117 ft | 7 kts | 254° |
| 2026-05-07 20:00 | 50.91091 | 4.49721 | 119 ft | 29 kts | 245° |
| 2026-05-07 20:00 | 50.90910 | 4.49091 | 117 ft | 98 kts | 245° |
| 2026-05-07 20:01 | 50.90546 | 4.47833 | 122 ft | 155 kts | 245° |
| 2026-05-07 20:01 | 50.90056 | 4.46134 | 538 ft | 173 kts | 245° |
| 2026-05-07 20:01 | 50.89547 | 4.44390 | 1205 ft | 181 kts | 244° |
| 2026-05-07 20:01 | 50.89003 | 4.42545 | 1924 ft | 188 kts | 243° |
| 2026-05-07 20:02 | 50.88212 | 4.40768 | 2345 ft | 209 kts | 224° |
| 2026-05-07 20:02 | 50.86972 | 4.39365 | 2724 ft | 231 kts | 204° |
| 2026-05-07 20:02 | 50.85353 | 4.38655 | 3207 ft | 253 kts | 183° |
| 2026-05-07 20:02 | 50.83585 | 4.38949 | 4049 ft | 260 kts | 161° |
| 2026-05-07 20:03 | 50.81983 | 4.40265 | 5052 ft | 262 kts | 140° |
| 2026-05-07 20:03 | 50.80799 | 4.42469 | 6022 ft | 266 kts | 118° |
| 2026-05-07 20:03 | 50.80222 | 4.45267 | 6826 ft | 273 kts | 96° |
| 2026-05-07 20:03 | 50.80379 | 4.48279 | 7686 ft | 278 kts | 79° |
| 2026-05-07 20:04 | 50.80484 | 4.51336 | 8568 ft | 283 kts | 103° |
| 2026-05-07 20:04 | 50.79835 | 4.54286 | 9468 ft | 287 kts | 112° |
| 2026-05-07 20:04 | 50.79126 | 4.57269 | 10297 ft | 295 kts | 111° |
| 2026-05-07 20:04 | 50.78401 | 4.60452 | 10600 ft | 319 kts | 110° |
| 2026-05-07 20:05 | 50.77649 | 4.63869 | 11032 ft | 336 kts | 110° |
| 2026-05-07 20:05 | 50.76888 | 4.67397 | 11760 ft | 343 kts | 109° |
| 2026-05-07 20:05 | 50.76116 | 4.70999 | 12533 ft | 348 kts | 110° |
| 2026-05-07 20:05 | 50.75334 | 4.74642 | 13302 ft | 353 kts | 110° |
| 2026-05-07 20:06 | 50.74541 | 4.78337 | 14051 ft | 358 kts | 110° |
| 2026-05-07 20:06 | 50.73737 | 4.82075 | 14738 ft | 362 kts | 110° |
| 2026-05-07 20:06 | 50.72922 | 4.85841 | 15417 ft | 366 kts | 110° |
| 2026-05-07 20:06 | 50.72089 | 4.89674 | 16099 ft | 370 kts | 110° |
| 2026-05-07 20:07 | 50.71250 | 4.93540 | 16769 ft | 374 kts | 110° |
| 2026-05-07 20:07 | 50.70402 | 4.97448 | 17437 ft | 378 kts | 110° |
| 2026-05-07 20:07 | 50.69541 | 5.01386 | 18099 ft | 382 kts | 110° |
| 2026-05-07 20:07 | 50.68664 | 5.05370 | 18695 ft | 387 kts | 110° |
| 2026-05-07 20:08 | 50.67784 | 5.09352 | 19280 ft | 390 kts | 110° |
| 2026-05-07 20:08 | 50.66883 | 5.13408 | 19862 ft | 394 kts | 110° |
| 2026-05-07 20:08 | 50.65979 | 5.17496 | 20446 ft | 397 kts | 110° |
| 2026-05-07 20:08 | 50.65068 | 5.21631 | 21030 ft | 401 kts | 110° |
| 2026-05-07 20:09 | 50.64148 | 5.25800 | 21616 ft | 405 kts | 110° |
| 2026-05-07 20:09 | 50.63205 | 5.30066 | 22203 ft | 408 kts | 110° |
| 2026-05-07 20:09 | 50.62264 | 5.34300 | 22775 ft | 412 kts | 110° |
| 2026-05-07 20:10 | 50.60357 | 5.42849 | 23091 ft | 415 kts | 110° |
| 2026-05-07 20:10 | 50.59395 | 5.47144 | 23089 ft | 414 kts | 111° |
| 2026-05-07 20:10 | 50.58450 | 5.51346 | 23089 ft | 414 kts | 111° |
| 2026-05-07 20:10 | 50.57484 | 5.55629 | 23092 ft | 414 kts | 111° |
| 2026-05-07 20:11 | 50.56521 | 5.59894 | 23086 ft | 414 kts | 111° |
| 2026-05-07 20:11 | 50.55557 | 5.64167 | 23087 ft | 414 kts | 111° |
| 2026-05-07 20:11 | 50.54592 | 5.68438 | 23088 ft | 414 kts | 111° |
| 2026-05-07 20:11 | 50.53626 | 5.72703 | 23086 ft | 414 kts | 111° |
| 2026-05-07 20:12 | 50.52658 | 5.76963 | 23084 ft | 414 kts | 111° |
| 2026-05-07 20:12 | 50.51688 | 5.81226 | 23086 ft | 414 kts | 111° |
| 2026-05-07 20:12 | 50.50720 | 5.85474 | 23086 ft | 414 kts | 111° |
| 2026-05-07 20:12 | 50.49749 | 5.89728 | 23082 ft | 414 kts | 111° |
| 2026-05-07 20:13 | 50.48772 | 5.93995 | 23083 ft | 414 kts | 111° |
| 2026-05-07 20:13 | 50.47801 | 5.98239 | 23084 ft | 414 kts | 111° |
| 2026-05-07 20:13 | 50.46827 | 6.02484 | 23084 ft | 414 kts | 111° |
| 2026-05-07 20:13 | 50.45847 | 6.06738 | 23078 ft | 414 kts | 110° |
| 2026-05-07 20:14 | 50.44871 | 6.10981 | 23083 ft | 413 kts | 110° |
| 2026-05-07 20:14 | 50.43892 | 6.15219 | 23085 ft | 413 kts | 111° |
| 2026-05-07 20:14 | 50.42910 | 6.19461 | 23086 ft | 413 kts | 111° |
| 2026-05-07 20:14 | 50.41929 | 6.23696 | 23087 ft | 413 kts | 111° |
| 2026-05-07 20:15 | 50.40946 | 6.27928 | 23090 ft | 413 kts | 111° |
| 2026-05-07 20:15 | 50.39961 | 6.32157 | 23090 ft | 413 kts | 111° |
| 2026-05-07 20:15 | 50.38974 | 6.36384 | 23088 ft | 413 kts | 111° |
| 2026-05-07 20:15 | 50.37984 | 6.40607 | 23087 ft | 413 kts | 111° |
| 2026-05-07 20:16 | 50.36994 | 6.44823 | 23084 ft | 413 kts | 111° |
| 2026-05-07 20:16 | 50.36114 | 6.49104 | 23078 ft | 414 kts | 104° |
| 2026-05-07 20:16 | 50.35667 | 6.53548 | 23080 ft | 414 kts | 96° |
| 2026-05-07 20:16 | 50.35392 | 6.58044 | 23081 ft | 414 kts | 96° |
| 2026-05-07 20:17 | 50.35113 | 6.62532 | 23085 ft | 414 kts | 96° |
| 2026-05-07 20:17 | 50.34826 | 6.67028 | 23084 ft | 414 kts | 96° |
| 2026-05-07 20:17 | 50.34535 | 6.71502 | 23085 ft | 414 kts | 96° |
| 2026-05-07 20:17 | 50.34241 | 6.75988 | 23085 ft | 414 kts | 96° |
| 2026-05-07 20:18 | 50.33951 | 6.80474 | 23088 ft | 414 kts | 96° |
| 2026-05-07 20:18 | 50.33537 | 6.84936 | 23084 ft | 413 kts | 103° |
| 2026-05-07 20:18 | 50.32686 | 6.89218 | 23084 ft | 412 kts | 113° |
| 2026-05-07 20:18 | 50.31505 | 6.93278 | 22933 ft | 407 kts | 116° |
| 2026-05-07 20:19 | 50.30326 | 6.97224 | 22402 ft | 403 kts | 116° |
| 2026-05-07 20:19 | 50.29526 | 6.99895 | 22081 ft | 400 kts | 116° |
| 2026-05-07 20:19 | 50.27974 | 7.05089 | 21390 ft | 396 kts | 116° |
| 2026-05-07 20:19 | 50.26817 | 7.08970 | 20877 ft | 393 kts | 116° |
| 2026-05-07 20:20 | 50.25667 | 7.12826 | 20363 ft | 390 kts | 116° |
| 2026-05-07 20:20 | 50.24894 | 7.15411 | 20024 ft | 388 kts | 116° |
| 2026-05-07 20:20 | 50.23752 | 7.19222 | 19517 ft | 385 kts | 116° |
| 2026-05-07 20:20 | 50.22620 | 7.22994 | 19017 ft | 383 kts | 116° |
| 2026-05-07 20:21 | 50.21488 | 7.26747 | 18516 ft | 381 kts | 116° |
| 2026-05-07 20:21 | 50.20375 | 7.30430 | 17985 ft | 379 kts | 116° |
| 2026-05-07 20:21 | 50.19265 | 7.34196 | 17479 ft | 375 kts | 114° |
| 2026-05-07 20:21 | 50.18285 | 7.37946 | 16993 ft | 372 kts | 112° |
| 2026-05-07 20:22 | 50.17390 | 7.41713 | 16509 ft | 369 kts | 110° |
| 2026-05-07 20:22 | 50.16534 | 7.45476 | 16031 ft | 366 kts | 110° |
| 2026-05-07 20:22 | 50.15690 | 7.49209 | 15553 ft | 364 kts | 110° |
| 2026-05-07 20:22 | 50.14840 | 7.52914 | 15079 ft | 362 kts | 111° |
| 2026-05-07 20:23 | 50.13982 | 7.56586 | 14607 ft | 360 kts | 111° |
| 2026-05-07 20:23 | 50.13112 | 7.60244 | 14141 ft | 358 kts | 111° |
| 2026-05-07 20:23 | 50.12241 | 7.63863 | 13704 ft | 354 kts | 111° |
| 2026-05-07 20:23 | 50.11396 | 7.67367 | 13419 ft | 346 kts | 111° |
| 2026-05-07 20:24 | 50.10591 | 7.70868 | 12988 ft | 343 kts | 109° |
| 2026-05-07 20:24 | 50.09867 | 7.74400 | 12526 ft | 340 kts | 108° |
| 2026-05-07 20:24 | 50.09198 | 7.77914 | 12077 ft | 338 kts | 107° |
| 2026-05-07 20:24 | 50.08571 | 7.81419 | 11620 ft | 335 kts | 102° |
| 2026-05-07 20:25 | 50.08334 | 7.85007 | 11177 ft | 332 kts | 89° |
| 2026-05-07 20:25 | 50.08599 | 7.88562 | 10733 ft | 330 kts | 77° |
| 2026-05-07 20:25 | 50.09308 | 7.91937 | 10303 ft | 327 kts | 69° |
| 2026-05-07 20:25 | 50.09796 | 7.95309 | 10138 ft | 315 kts | 89° |
| 2026-05-07 20:26 | 50.09397 | 7.98566 | 10019 ft | 302 kts | 115° |
| 2026-05-07 20:26 | 50.08201 | 8.01150 | 9798 ft | 292 kts | 140° |
| 2026-05-07 20:26 | 50.06457 | 8.02608 | 9551 ft | 282 kts | 167° |
| 2026-05-07 20:26 | 50.04562 | 8.02656 | 9392 ft | 268 kts | 196° |
| 2026-05-07 20:27 | 50.02968 | 8.01362 | 9253 ft | 253 kts | 225° |
| 2026-05-07 20:27 | 50.01819 | 7.99349 | 8997 ft | 247 kts | 232° |
| 2026-05-07 20:27 | 50.00768 | 7.97244 | 8659 ft | 245 kts | 233° |
| 2026-05-07 20:27 | 49.99598 | 7.95341 | 8313 ft | 244 kts | 213° |
| 2026-05-07 20:28 | 49.97999 | 7.94541 | 7954 ft | 244 kts | 182° |
| 2026-05-07 20:28 | 49.96317 | 7.94904 | 7566 ft | 246 kts | 162° |
| 2026-05-07 20:28 | 49.94800 | 7.96088 | 7209 ft | 246 kts | 143° |
| 2026-05-07 20:28 | 49.93608 | 7.97959 | 6846 ft | 245 kts | 124° |
| 2026-05-07 20:29 | 49.92863 | 8.00336 | 6503 ft | 244 kts | 105° |
| 2026-05-07 20:29 | 49.92653 | 8.02934 | 6146 ft | 242 kts | 85° |
| 2026-05-07 20:29 | 49.92973 | 8.05424 | 6017 ft | 230 kts | 69° |
| 2026-05-07 20:29 | 49.93528 | 8.07694 | 5874 ft | 221 kts | 68° |
| 2026-05-07 20:30 | 49.94062 | 8.09874 | 5753 ft | 213 kts | 68° |
| 2026-05-07 20:30 | 49.94576 | 8.11979 | 5646 ft | 203 kts | 68° |
| 2026-05-07 20:30 | 49.95071 | 8.14006 | 5461 ft | 199 kts | 68° |
| 2026-05-07 20:30 | 49.95560 | 8.16012 | 5198 ft | 198 kts | 68° |
| 2026-05-07 20:31 | 49.96048 | 8.18017 | 4937 ft | 199 kts | 68° |
| 2026-05-07 20:31 | 49.96539 | 8.20036 | 4629 ft | 200 kts | 68° |
| 2026-05-07 20:31 | 49.97029 | 8.22053 | 4362 ft | 198 kts | 68° |
| 2026-05-07 20:31 | 49.97512 | 8.24042 | 4051 ft | 195 kts | 68° |
| 2026-05-07 20:32 | 49.97986 | 8.25994 | 3764 ft | 191 kts | 68° |
| 2026-05-07 20:32 | 49.98448 | 8.27900 | 3497 ft | 187 kts | 68° |
| 2026-05-07 20:32 | 49.98901 | 8.29769 | 3237 ft | 182 kts | 68° |
| 2026-05-07 20:32 | 49.99342 | 8.31594 | 2967 ft | 177 kts | 68° |
| 2026-05-07 20:33 | 49.99762 | 8.33330 | 2717 ft | 167 kts | 68° |
| 2026-05-07 20:33 | 50.00164 | 8.34993 | 2473 ft | 161 kts | 68° |
| 2026-05-07 20:33 | 50.00549 | 8.36590 | 2248 ft | 159 kts | 69° |
| 2026-05-07 20:33 | 50.00936 | 8.38195 | 2023 ft | 158 kts | 69° |
| 2026-05-07 20:34 | 50.01314 | 8.39762 | 1802 ft | 149 kts | 68° |
| 2026-05-07 20:34 | 50.01660 | 8.41199 | 1583 ft | 136 kts | 69° |
| 2026-05-07 20:34 | 50.01987 | 8.42558 | 1380 ft | 133 kts | 69° |
| 2026-05-07 20:34 | 50.02313 | 8.43913 | 1178 ft | 132 kts | 69° |
| 2026-05-07 20:35 | 50.02632 | 8.45225 | 981 ft | 131 kts | 68° |
| 2026-05-07 20:35 | 50.02955 | 8.46561 | 800 ft | 130 kts | 70° |
| 2026-05-07 20:35 | 50.03258 | 8.47866 | 632 ft | 130 kts | 68° |
| 2026-05-07 20:35 | 50.03575 | 8.49176 | 438 ft | 129 kts | 69° |
| 2026-05-07 20:36 | 50.03882 | 8.50457 | 321 ft | 118 kts | 69° |
| 2026-05-07 20:36 | 50.04128 | 8.51469 | 330 ft | 80 kts | 70° |
| 2026-05-07 20:36 | 50.04266 | 8.52048 | 339 ft | 43 kts | 69° |
| 2026-05-07 20:36 | 50.04364 | 8.52451 | 347 ft | 37 kts | 70° |
| 2026-05-07 20:37 | 50.04390 | 8.52815 | 349 ft | 32 kts | 97° |
| 2026-05-07 20:37 | 50.04362 | 8.53097 | 355 ft | 24 kts | 99° |
| 2026-05-07 20:37 | 50.04355 | 8.53319 | 367 ft | 18 kts | 76° |
| 2026-05-07 20:37 | 50.04392 | 8.53489 | 375 ft | 15 kts | 77° |
| 2026-05-07 20:38 | 50.04405 | 8.53662 | 375 ft | 17 kts | 84° |
| 2026-05-07 20:38 | 50.04418 | 8.53861 | 375 ft | 20 kts | 84° |
| 2026-05-07 20:38 | 50.04433 | 8.54085 | 375 ft | 22 kts | 84° |
| 2026-05-07 20:38 | 50.04449 | 8.54329 | 374 ft | 23 kts | 84° |
| 2026-05-07 20:39 | 50.04441 | 8.54544 | 371 ft | 20 kts | 107° |
| 2026-05-07 20:39 | 50.04359 | 8.54725 | 360 ft | 24 kts | 141° |
| 2026-05-07 20:39 | 50.04270 | 8.54797 | 355 ft | 10 kts | 159° |
| 2026-05-07 20:39 | 50.04197 | 8.54835 | 353 ft | 11 kts | 160° |
| 2026-05-07 20:40 | 50.04124 | 8.54878 | 358 ft | 11 kts | 159° |
| 2026-05-07 20:40 | 50.04065 | 8.54912 | 357 ft | 7 kts | 160° |
| 2026-05-07 20:40 | 50.04019 | 8.54981 | 354 ft | 13 kts | 103° |
| 2026-05-07 20:40 | 50.04049 | 8.55147 | 356 ft | 16 kts | 69° |
| 2026-05-07 20:41 | 50.04087 | 8.55302 | 360 ft | 16 kts | 69° |
| 2026-05-07 20:41 | 50.04129 | 8.55478 | 356 ft | 19 kts | 70° |
| 2026-05-07 20:41 | 50.04156 | 8.55591 | 356 ft | 9 kts | 69° |
| 2026-05-07 20:41 | 50.04175 | 8.55670 | 360 ft | 6 kts | 70° |
| 2026-05-07 20:42 | 50.04186 | 8.55718 | 358 ft | 4 kts | 70° |
| 2026-05-07 20:42 | 50.04200 | 8.55774 | 359 ft | 12 kts | 69° |
| 2026-05-07 20:42 | 50.04239 | 8.55947 | 354 ft | 20 kts | 70° |
| 2026-05-07 20:42 | 50.04295 | 8.56171 | 356 ft | 22 kts | 70° |
| 2026-05-07 20:43 | 50.04348 | 8.56397 | 358 ft | 22 kts | 70° |
| 2026-05-07 20:43 | 50.04400 | 8.56612 | 364 ft | 20 kts | 69° |
| 2026-05-07 20:43 | 50.04445 | 8.56800 | 365 ft | 17 kts | 69° |
| 2026-05-07 20:43 | 50.04533 | 8.56883 | 359 ft | 16 kts | 13° |
| 2026-05-07 20:44 | 50.04646 | 8.56931 | 358 ft | 17 kts | 21° |
| 2026-05-07 20:44 | 50.04759 | 8.57009 | 357 ft | 18 kts | 25° |
| 2026-05-07 20:44 | 50.04849 | 8.57073 | 356 ft | 9 kts | 24° |
| 2026-05-07 20:44 | 50.04885 | 8.57101 | 358 ft | 4 kts | 37° |
| 2026-05-07 20:45 | 50.04899 | 8.57134 | 363 ft | 3 kts | 63° |
| 2026-05-07 20:45 | 50.04893 | 8.57148 | 360 ft | 1 kts | 142° |
| 2026-05-07 20:45 | 50.04887 | 8.57150 | 362 ft | 1 kts | 160° |
| 2026-05-07 20:45 | 50.04883 | 8.57153 | 363 ft | 1 kts | 160° |
| 2026-05-07 20:46 | 50.04882 | 8.57153 | 363 ft | 0 kts | 160° |